sensor_id;sensor_type;location;lat;lon;timestamp;temperature;humidity
15184;DHT22;7693;49.266;7.104;2023-05-24T04:18:57;10.00;99.90
15184;DHT22;7693;49.266;7.104;2023-05-24T04:21:25;10.00;99.90
15184;DHT22;7693;49.266;7.104;2023-05-24T04:23:51;10.10;99.90
15184;DHT22;7693;49.266;7.104;2023-05-24T04:26:16;10.10;99.90
15184;DHT22;7693;49.266;7.104;2023-05-24T04:28:42;10.10;99.90
15184;DHT22;7693;49.266;7.104;2023-05-24T04:31:10;10.10;99.90
15184;DHT22;7693;49.266;7.104;2023-05-24T04:33:36;10.20;99.90
15184;DHT22;7693;49.266;7.104;2023-05-24T04:36:03;10.30;99.90
15184;DHT22;7693;49.266;7.104;2023-05-24T04:38:29;10.30;99.90
15184;DHT22;7693;49.266;7.104;2023-05-24T04:40:57;10.40;99.90
15184;DHT22;7693;49.266;7.104;2023-05-24T04:43:24;10.40;99.90
15184;DHT22;7693;49.266;7.104;2023-05-24T04:45:51;10.40;99.90
15184;DHT22;7693;49.266;7.104;2023-05-24T04:48:18;10.40;99.90
15184;DHT22;7693;49.266;7.104;2023-05-24T04:50:45;10.40;99.90
15184;DHT22;7693;49.266;7.104;2023-05-24T04:53:12;10.40;99.90
15184;DHT22;7693;49.266;7.104;2023-05-24T04:55:39;10.50;99.90
15184;DHT22;7693;49.266;7.104;2023-05-24T04:58:04;10.50;99.90
15184;DHT22;7693;49.266;7.104;2023-05-24T05:00:30;10.50;99.90
15184;DHT22;7693;49.266;7.104;2023-05-24T05:02:55;10.60;99.90
15184;DHT22;7693;49.266;7.104;2023-05-24T05:05:21;10.70;99.90
15184;DHT22;7693;49.266;7.104;2023-05-24T05:07:47;10.80;99.90
15184;DHT22;7693;49.266;7.104;2023-05-24T05:10:12;10.90;99.90
15184;DHT22;7693;49.266;7.104;2023-05-24T05:12:38;11.00;99.90
15184;DHT22;7693;49.266;7.104;2023-05-24T05:15:04;11.00;99.90
15184;DHT22;7693;49.266;7.104;2023-05-24T05:17:29;11.10;99.90
15184;DHT22;7693;49.266;7.104;2023-05-24T05:19:55;11.10;99.90
15184;DHT22;7693;49.266;7.104;2023-05-24T05:22:21;11.10;99.90
15184;DHT22;7693;49.266;7.104;2023-05-24T05:24:46;11.10;99.90
15184;DHT22;7693;49.266;7.104;2023-05-24T05:27:12;11.10;99.90
15184;DHT22;7693;49.266;7.104;2023-05-24T05:29:37;11.20;99.90
15184;DHT22;7693;49.266;7.104;2023-05-24T05:32:03;11.10;99.90
15184;DHT22;7693;49.266;7.104;2023-05-24T05:34:29;11.20;99.90
15184;DHT22;7693;49.266;7.104;2023-05-24T05:36:54;11.30;99.90
15184;DHT22;7693;49.266;7.104;2023-05-24T05:39:20;11.40;99.90
15184;DHT22;7693;49.266;7.104;2023-05-24T05:41:45;11.50;99.90
15184;DHT22;7693;49.266;7.104;2023-05-24T05:44:11;11.50;99.90
15184;DHT22;7693;49.266;7.104;2023-05-24T05:46:38;11.60;99.90
15184;DHT22;7693;49.266;7.104;2023-05-24T05:49:05;11.70;99.90
15184;DHT22;7693;49.266;7.104;2023-05-24T05:51:31;11.70;99.90
15184;DHT22;7693;49.266;7.104;2023-05-24T05:53:56;11.80;99.90
15184;DHT22;7693;49.266;7.104;2023-05-24T05:56:22;11.80;99.90
15184;DHT22;7693;49.266;7.104;2023-05-24T05:58:47;11.80;99.90
15184;DHT22;7693;49.266;7.104;2023-05-24T06:01:14;11.80;99.90
15184;DHT22;7693;49.266;7.104;2023-05-24T06:03:40;11.90;99.90
15184;DHT22;7693;49.266;7.104;2023-05-24T06:06:06;11.90;99.90
15184;DHT22;7693;49.266;7.104;2023-05-24T06:08:31;12.00;99.90
15184;DHT22;7693;49.266;7.104;2023-05-24T06:11:00;12.00;99.90
15184;DHT22;7693;49.266;7.104;2023-05-24T06:13:28;12.10;99.90
15184;DHT22;7693;49.266;7.104;2023-05-24T06:15:55;12.10;99.90
15184;DHT22;7693;49.266;7.104;2023-05-24T06:18:21;12.10;99.90
15184;DHT22;7693;49.266;7.104;2023-05-24T06:20:46;12.20;99.90
15184;DHT22;7693;49.266;7.104;2023-05-24T06:23:12;12.30;99.90
15184;DHT22;7693;49.266;7.104;2023-05-24T06:25:38;12.30;99.90
15184;DHT22;7693;49.266;7.104;2023-05-24T06:28:04;12.30;99.90
15184;DHT22;7693;49.266;7.104;2023-05-24T06:30:30;12.40;99.90
15184;DHT22;7693;49.266;7.104;2023-05-24T06:32:57;12.50;99.90
15184;DHT22;7693;49.266;7.104;2023-05-24T06:35:23;12.50;99.90
15184;DHT22;7693;49.266;7.104;2023-05-24T06:37:49;12.50;99.90
15184;DHT22;7693;49.266;7.104;2023-05-24T06:40:15;12.60;99.90
15184;DHT22;7693;49.266;7.104;2023-05-24T06:42:40;12.60;99.90
15184;DHT22;7693;49.266;7.104;2023-05-24T06:45:06;12.60;99.90
15184;DHT22;7693;49.266;7.104;2023-05-24T06:47:32;12.60;99.90
15184;DHT22;7693;49.266;7.104;2023-05-24T06:49:58;12.60;99.90
15184;DHT22;7693;49.266;7.104;2023-05-24T06:52:25;12.60;99.90
15184;DHT22;7693;49.266;7.104;2023-05-24T06:54:51;12.60;99.90
15184;DHT22;7693;49.266;7.104;2023-05-24T06:57:17;12.70;99.90
15184;DHT22;7693;49.266;7.104;2023-05-24T06:59:42;12.80;99.90
15184;DHT22;7693;49.266;7.104;2023-05-24T07:02:08;12.90;99.90
15184;DHT22;7693;49.266;7.104;2023-05-24T07:04:33;12.90;99.90
15184;DHT22;7693;49.266;7.104;2023-05-24T07:06:59;12.90;99.90
15184;DHT22;7693;49.266;7.104;2023-05-24T07:09:25;12.90;99.90
15184;DHT22;7693;49.266;7.104;2023-05-24T07:11:51;12.80;99.90
15184;DHT22;7693;49.266;7.104;2023-05-24T07:14:17;12.90;99.90
15184;DHT22;7693;49.266;7.104;2023-05-24T07:16:42;13.10;99.90
15184;DHT22;7693;49.266;7.104;2023-05-24T07:19:08;13.20;99.90
15184;DHT22;7693;49.266;7.104;2023-05-24T07:21:33;13.30;99.90
15184;DHT22;7693;49.266;7.104;2023-05-24T07:23:59;13.30;99.90
15184;DHT22;7693;49.266;7.104;2023-05-24T07:26:25;13.30;99.90
15184;DHT22;7693;49.266;7.104;2023-05-24T07:28:51;13.30;99.90
15184;DHT22;7693;49.266;7.104;2023-05-24T07:31:16;13.40;99.90
15184;DHT22;7693;49.266;7.104;2023-05-24T07:33:42;13.50;99.90
15184;DHT22;7693;49.266;7.104;2023-05-24T07:36:07;13.50;99.90
15184;DHT22;7693;49.266;7.104;2023-05-24T07:38:34;13.70;99.90
15184;DHT22;7693;49.266;7.104;2023-05-24T07:41:01;13.70;99.90
15184;DHT22;7693;49.266;7.104;2023-05-24T07:43:30;13.70;99.90
15184;DHT22;7693;49.266;7.104;2023-05-24T07:45:56;13.80;99.90
15184;DHT22;7693;49.266;7.104;2023-05-24T07:48:22;13.70;99.90
15184;DHT22;7693;49.266;7.104;2023-05-24T07:50:49;13.80;99.90
15184;DHT22;7693;49.266;7.104;2023-05-24T07:53:16;13.80;99.90
15184;DHT22;7693;49.266;7.104;2023-05-24T07:55:42;13.90;99.90
15184;DHT22;7693;49.266;7.104;2023-05-24T07:58:09;13.90;99.90
15184;DHT22;7693;49.266;7.104;2023-05-24T08:00:35;13.90;99.90
15184;DHT22;7693;49.266;7.104;2023-05-24T08:03:00;14.00;99.90
15184;DHT22;7693;49.266;7.104;2023-05-24T08:05:26;14.00;99.90
15184;DHT22;7693;49.266;7.104;2023-05-24T08:07:52;13.90;99.90
15184;DHT22;7693;49.266;7.104;2023-05-24T08:10:18;14.00;99.90
15184;DHT22;7693;49.266;7.104;2023-05-24T08:12:44;14.00;99.90
15184;DHT22;7693;49.266;7.104;2023-05-24T08:15:10;14.10;99.90
15184;DHT22;7693;49.266;7.104;2023-05-24T08:17:38;14.10;99.90
15184;DHT22;7693;49.266;7.104;2023-05-24T08:20:04;14.20;99.90
15184;DHT22;7693;49.266;7.104;2023-05-24T08:22:34;14.20;99.90
15184;DHT22;7693;49.266;7.104;2023-05-24T08:25:00;14.30;99.90
15184;DHT22;7693;49.266;7.104;2023-05-24T08:27:25;14.30;99.90
15184;DHT22;7693;49.266;7.104;2023-05-24T08:29:54;14.30;99.90
15184;DHT22;7693;49.266;7.104;2023-05-24T08:32:20;14.40;99.90
15184;DHT22;7693;49.266;7.104;2023-05-24T08:34:45;14.40;99.90
15184;DHT22;7693;49.266;7.104;2023-05-24T08:37:11;14.50;99.90
15184;DHT22;7693;49.266;7.104;2023-05-24T08:39:39;14.50;99.90
15184;DHT22;7693;49.266;7.104;2023-05-24T08:42:05;14.60;99.90
15184;DHT22;7693;49.266;7.104;2023-05-24T08:44:40;14.50;99.90
15184;DHT22;7693;49.266;7.104;2023-05-24T08:47:07;14.50;99.90
15184;DHT22;7693;49.266;7.104;2023-05-24T08:49:35;14.50;99.90
15184;DHT22;7693;49.266;7.104;2023-05-24T08:52:01;14.60;99.90
15184;DHT22;7693;49.266;7.104;2023-05-24T08:54:28;14.80;99.90
15184;DHT22;7693;49.266;7.104;2023-05-24T08:56:54;14.90;99.90
15184;DHT22;7693;49.266;7.104;2023-05-24T08:59:21;15.00;99.90
15184;DHT22;7693;49.266;7.104;2023-05-24T09:01:52;15.00;99.90
15184;DHT22;7693;49.266;7.104;2023-05-24T09:04:20;15.00;99.90
15184;DHT22;7693;49.266;7.104;2023-05-24T09:06:47;15.10;99.90
15184;DHT22;7693;49.266;7.104;2023-05-24T09:09:17;15.20;99.90
15184;DHT22;7693;49.266;7.104;2023-05-24T09:11:44;15.20;99.90
15184;DHT22;7693;49.266;7.104;2023-05-24T09:14:10;15.20;99.90
15184;DHT22;7693;49.266;7.104;2023-05-24T09:16:36;15.30;99.90
15184;DHT22;7693;49.266;7.104;2023-05-24T09:19:02;15.30;99.90
15184;DHT22;7693;49.266;7.104;2023-05-24T09:21:28;15.30;99.90
15184;DHT22;7693;49.266;7.104;2023-05-24T09:23:54;15.30;99.90
15184;DHT22;7693;49.266;7.104;2023-05-24T09:26:20;15.40;99.90
15184;DHT22;7693;49.266;7.104;2023-05-24T09:28:46;15.50;99.90
15184;DHT22;7693;49.266;7.104;2023-05-24T09:31:12;15.60;99.90
15184;DHT22;7693;49.266;7.104;2023-05-24T09:33:38;15.80;99.90
15184;DHT22;7693;49.266;7.104;2023-05-24T09:36:05;15.90;99.90
15184;DHT22;7693;49.266;7.104;2023-05-24T09:38:31;15.80;99.90
15184;DHT22;7693;49.266;7.104;2023-05-24T09:41:05;15.80;99.90
15184;DHT22;7693;49.266;7.104;2023-05-24T09:43:46;15.80;99.90
15184;DHT22;7693;49.266;7.104;2023-05-24T09:46:16;15.90;99.90
15184;DHT22;7693;49.266;7.104;2023-05-24T09:48:56;15.90;99.90
15184;DHT22;7693;49.266;7.104;2023-05-24T09:51:22;16.00;99.90
15184;DHT22;7693;49.266;7.104;2023-05-24T09:53:48;15.90;99.90
15184;DHT22;7693;49.266;7.104;2023-05-24T09:56:16;15.90;99.90
15184;DHT22;7693;49.266;7.104;2023-05-24T09:58:44;16.10;99.90
15184;DHT22;7693;49.266;7.104;2023-05-24T10:01:10;16.10;99.90
15184;DHT22;7693;49.266;7.104;2023-05-24T12:54:50;19.20;95.70
15184;DHT22;7693;49.266;7.104;2023-05-24T12:57:16;19.30;95.30
15184;DHT22;7693;49.266;7.104;2023-05-24T12:59:41;19.40;95.20
15184;DHT22;7693;49.266;7.104;2023-05-24T13:02:07;19.40;93.60
15184;DHT22;7693;49.266;7.104;2023-05-24T13:04:33;19.10;93.50
15184;DHT22;7693;49.266;7.104;2023-05-24T13:07:01;19.10;94.00
15184;DHT22;7693;49.266;7.104;2023-05-24T13:09:27;19.10;93.30
15184;DHT22;7693;49.266;7.104;2023-05-24T13:11:54;19.10;93.90
15184;DHT22;7693;49.266;7.104;2023-05-24T13:14:19;19.20;93.90
15184;DHT22;7693;49.266;7.104;2023-05-24T13:16:45;19.20;94.00
15184;DHT22;7693;49.266;7.104;2023-05-24T13:19:11;19.30;93.90
15184;DHT22;7693;49.266;7.104;2023-05-24T13:21:37;19.40;93.60
15184;DHT22;7693;49.266;7.104;2023-05-24T13:24:03;19.50;93.40
15184;DHT22;7693;49.266;7.104;2023-05-24T13:26:30;19.50;93.40
15184;DHT22;7693;49.266;7.104;2023-05-24T13:29:02;19.50;93.00
15184;DHT22;7693;49.266;7.104;2023-05-24T13:31:27;19.40;93.00
15184;DHT22;7693;49.266;7.104;2023-05-24T13:33:53;19.50;92.70
15184;DHT22;7693;49.266;7.104;2023-05-24T13:36:18;19.50;92.70
15184;DHT22;7693;49.266;7.104;2023-05-24T13:38:45;19.40;92.50
15184;DHT22;7693;49.266;7.104;2023-05-24T13:41:10;19.40;92.60
15184;DHT22;7693;49.266;7.104;2023-05-24T13:43:36;19.40;92.70
15184;DHT22;7693;49.266;7.104;2023-05-24T13:46:01;19.50;92.40
15184;DHT22;7693;49.266;7.104;2023-05-24T13:48:27;19.50;92.60
15184;DHT22;7693;49.266;7.104;2023-05-24T13:50:53;19.50;92.40
15184;DHT22;7693;49.266;7.104;2023-05-24T13:53:18;19.50;92.30
15184;DHT22;7693;49.266;7.104;2023-05-24T13:55:46;19.50;92.20
15184;DHT22;7693;49.266;7.104;2023-05-24T13:58:12;19.40;92.10
15184;DHT22;7693;49.266;7.104;2023-05-24T14:00:37;19.30;91.90
15184;DHT22;7693;49.266;7.104;2023-05-24T14:03:03;19.30;91.90
15184;DHT22;7693;49.266;7.104;2023-05-24T14:05:30;19.30;92.20
15184;DHT22;7693;49.266;7.104;2023-05-24T14:07:57;19.40;92.30
15184;DHT22;7693;49.266;7.104;2023-05-24T14:10:28;19.40;92.20
15184;DHT22;7693;49.266;7.104;2023-05-24T14:12:53;19.30;91.70
15184;DHT22;7693;49.266;7.104;2023-05-24T14:15:19;19.20;91.70
15184;DHT22;7693;49.266;7.104;2023-05-24T14:17:45;19.20;92.10
15184;DHT22;7693;49.266;7.104;2023-05-24T14:20:10;19.20;91.60
15184;DHT22;7693;49.266;7.104;2023-05-24T14:22:36;19.10;91.90
15184;DHT22;7693;49.266;7.104;2023-05-24T14:25:02;19.00;91.70
15184;DHT22;7693;49.266;7.104;2023-05-24T14:27:27;18.90;91.60
15184;DHT22;7693;49.266;7.104;2023-05-24T14:29:53;18.70;91.70
15184;DHT22;7693;49.266;7.104;2023-05-24T14:32:18;18.80;92.10
15184;DHT22;7693;49.266;7.104;2023-05-24T14:34:44;18.80;92.00
15184;DHT22;7693;49.266;7.104;2023-05-24T14:37:10;18.80;91.80
15184;DHT22;7693;49.266;7.104;2023-05-24T14:39:35;18.70;91.40
15184;DHT22;7693;49.266;7.104;2023-05-24T14:42:01;18.60;91.50
15184;DHT22;7693;49.266;7.104;2023-05-24T14:44:27;18.50;91.50
15184;DHT22;7693;49.266;7.104;2023-05-24T14:46:52;18.40;91.40
15184;DHT22;7693;49.266;7.104;2023-05-24T14:49:18;18.30;91.40
15184;DHT22;7693;49.266;7.104;2023-05-24T14:51:46;18.30;91.40
15184;DHT22;7693;49.266;7.104;2023-05-24T14:54:13;18.10;91.10
15184;DHT22;7693;49.266;7.104;2023-05-24T14:56:39;18.00;91.40
15184;DHT22;7693;49.266;7.104;2023-05-24T14:59:05;18.00;91.50
15184;DHT22;7693;49.266;7.104;2023-05-24T15:01:31;18.00;91.50
15184;DHT22;7693;49.266;7.104;2023-05-24T15:03:56;18.10;91.90
15184;DHT22;7693;49.266;7.104;2023-05-24T15:06:22;18.10;91.60
15184;DHT22;7693;49.266;7.104;2023-05-24T15:08:48;18.10;91.60
15184;DHT22;7693;49.266;7.104;2023-05-24T15:11:14;18.10;91.70
15184;DHT22;7693;49.266;7.104;2023-05-24T15:13:41;18.10;91.30
15184;DHT22;7693;49.266;7.104;2023-05-24T15:16:07;18.00;91.10
15184;DHT22;7693;49.266;7.104;2023-05-24T15:18:33;17.80;91.20
15184;DHT22;7693;49.266;7.104;2023-05-24T15:20:59;17.80;91.50
15184;DHT22;7693;49.266;7.104;2023-05-24T15:23:24;17.80;91.40
15184;DHT22;7693;49.266;7.104;2023-05-24T15:25:50;17.80;91.00
15184;DHT22;7693;49.266;7.104;2023-05-24T15:28:16;17.60;90.80
15184;DHT22;7693;49.266;7.104;2023-05-24T15:30:43;17.50;91.00
15184;DHT22;7693;49.266;7.104;2023-05-24T15:33:10;17.30;90.70
15184;DHT22;7693;49.266;7.104;2023-05-24T15:35:36;17.20;90.80
15184;DHT22;7693;49.266;7.104;2023-05-24T15:38:03;17.10;90.90
15184;DHT22;7693;49.266;7.104;2023-05-24T15:40:28;17.00;91.00
15184;DHT22;7693;49.266;7.104;2023-05-24T15:42:54;17.10;91.10
15184;DHT22;7693;49.266;7.104;2023-05-24T15:45:19;17.00;91.10
15184;DHT22;7693;49.266;7.104;2023-05-24T15:47:45;17.00;91.00
15184;DHT22;7693;49.266;7.104;2023-05-24T15:50:11;17.00;91.00
15184;DHT22;7693;49.266;7.104;2023-05-24T15:52:37;17.00;91.20
15184;DHT22;7693;49.266;7.104;2023-05-24T15:55:03;17.00;91.40
15184;DHT22;7693;49.266;7.104;2023-05-24T15:57:30;17.00;91.00
15184;DHT22;7693;49.266;7.104;2023-05-24T15:59:56;16.90;90.60
15184;DHT22;7693;49.266;7.104;2023-05-24T16:02:21;16.80;91.00
15184;DHT22;7693;49.266;7.104;2023-05-24T16:04:47;16.80;91.20
15184;DHT22;7693;49.266;7.104;2023-05-24T16:07:13;16.80;90.80
15184;DHT22;7693;49.266;7.104;2023-05-24T16:09:38;16.70;90.70
15184;DHT22;7693;49.266;7.104;2023-05-24T16:12:04;16.70;90.80
15184;DHT22;7693;49.266;7.104;2023-05-24T16:14:30;16.60;91.00
15184;DHT22;7693;49.266;7.104;2023-05-24T16:16:55;16.60;91.10
15184;DHT22;7693;49.266;7.104;2023-05-24T16:19:23;16.60;90.70
15184;DHT22;7693;49.266;7.104;2023-05-24T16:21:49;16.40;90.50
15184;DHT22;7693;49.266;7.104;2023-05-24T16:24:14;16.30;90.60
15184;DHT22;7693;49.266;7.104;2023-05-24T16:26:40;16.30;90.80
15184;DHT22;7693;49.266;7.104;2023-05-24T16:29:06;16.30;90.90
15184;DHT22;7693;49.266;7.104;2023-05-24T16:31:34;16.20;91.10
15184;DHT22;7693;49.266;7.104;2023-05-24T16:34:00;16.30;90.70
15184;DHT22;7693;49.266;7.104;2023-05-24T16:36:26;16.20;90.80
15184;DHT22;7693;49.266;7.104;2023-05-24T16:38:52;16.10;90.70
15184;DHT22;7693;49.266;7.104;2023-05-24T16:41:18;16.10;90.70
15184;DHT22;7693;49.266;7.104;2023-05-24T16:43:43;16.10;90.90
15184;DHT22;7693;49.266;7.104;2023-05-24T16:46:09;16.10;90.80
15184;DHT22;7693;49.266;7.104;2023-05-24T16:48:35;16.00;90.20
15184;DHT22;7693;49.266;7.104;2023-05-24T16:51:01;15.90;90.40
15184;DHT22;7693;49.266;7.104;2023-05-24T16:53:27;15.80;90.50
15184;DHT22;7693;49.266;7.104;2023-05-24T16:55:53;15.70;90.80
15184;DHT22;7693;49.266;7.104;2023-05-24T16:58:20;15.80;91.00
15184;DHT22;7693;49.266;7.104;2023-05-24T17:00:46;15.80;91.00
15184;DHT22;7693;49.266;7.104;2023-05-24T17:03:12;15.90;91.00
15184;DHT22;7693;49.266;7.104;2023-05-24T17:05:38;15.90;91.00
15184;DHT22;7693;49.266;7.104;2023-05-24T17:08:04;15.90;91.00
15184;DHT22;7693;49.266;7.104;2023-05-24T17:10:30;15.90;91.00
15184;DHT22;7693;49.266;7.104;2023-05-24T17:12:55;16.00;91.10
15184;DHT22;7693;49.266;7.104;2023-05-24T17:15:21;16.00;90.80
15184;DHT22;7693;49.266;7.104;2023-05-24T17:17:46;15.90;90.80
15184;DHT22;7693;49.266;7.104;2023-05-24T17:20:13;16.00;91.20
15184;DHT22;7693;49.266;7.104;2023-05-24T17:22:38;15.90;91.10
15184;DHT22;7693;49.266;7.104;2023-05-24T17:25:05;15.90;90.90
15184;DHT22;7693;49.266;7.104;2023-05-24T17:27:30;15.80;90.90
15184;DHT22;7693;49.266;7.104;2023-05-24T17:29:56;15.90;91.20
15184;DHT22;7693;49.266;7.104;2023-05-24T17:32:22;15.90;91.20
15184;DHT22;7693;49.266;7.104;2023-05-24T17:34:47;15.90;90.70
15184;DHT22;7693;49.266;7.104;2023-05-24T17:37:13;15.80;90.80
15184;DHT22;7693;49.266;7.104;2023-05-24T17:39:38;15.70;90.70
15184;DHT22;7693;49.266;7.104;2023-05-24T17:42:04;15.60;90.90
15184;DHT22;7693;49.266;7.104;2023-05-24T17:44:31;15.60;91.00
15184;DHT22;7693;49.266;7.104;2023-05-24T17:46:58;15.50;91.00
15184;DHT22;7693;49.266;7.104;2023-05-24T17:49:23;15.30;90.70
15184;DHT22;7693;49.266;7.104;2023-05-24T17:51:49;15.20;90.90
15184;DHT22;7693;49.266;7.104;2023-05-24T17:54:15;15.10;91.20
15184;DHT22;7693;49.266;7.104;2023-05-24T17:56:40;15.10;91.30
15184;DHT22;7693;49.266;7.104;2023-05-24T17:59:06;15.10;91.20
15184;DHT22;7693;49.266;7.104;2023-05-24T18:01:31;15.00;91.20
15184;DHT22;7693;49.266;7.104;2023-05-24T18:03:57;15.00;91.30
15184;DHT22;7693;49.266;7.104;2023-05-24T18:06:23;14.90;91.30
15184;DHT22;7693;49.266;7.104;2023-05-24T18:08:48;14.90;91.20
15184;DHT22;7693;49.266;7.104;2023-05-24T18:11:14;14.80;91.20
15184;DHT22;7693;49.266;7.104;2023-05-24T18:13:42;14.80;91.40
15184;DHT22;7693;49.266;7.104;2023-05-24T18:16:09;14.80;91.60
15184;DHT22;7693;49.266;7.104;2023-05-24T18:18:35;14.80;91.40
15184;DHT22;7693;49.266;7.104;2023-05-24T18:21:02;14.70;91.40
15184;DHT22;7693;49.266;7.104;2023-05-24T18:23:28;14.70;91.50
15184;DHT22;7693;49.266;7.104;2023-05-24T18:25:53;14.60;91.50
15184;DHT22;7693;49.266;7.104;2023-05-24T18:28:22;14.60;91.60
15184;DHT22;7693;49.266;7.104;2023-05-24T18:30:50;14.60;91.50
15184;DHT22;7693;49.266;7.104;2023-05-24T18:33:19;14.60;91.60
15184;DHT22;7693;49.266;7.104;2023-05-24T18:35:44;14.50;91.60
15184;DHT22;7693;49.266;7.104;2023-05-24T18:38:10;14.60;91.70
15184;DHT22;7693;49.266;7.104;2023-05-24T18:40:36;14.60;91.70
15184;DHT22;7693;49.266;7.104;2023-05-24T18:43:01;14.50;91.40
15184;DHT22;7693;49.266;7.104;2023-05-24T18:45:27;14.40;91.30
15184;DHT22;7693;49.266;7.104;2023-05-24T18:47:52;14.30;91.40
15184;DHT22;7693;49.266;7.104;2023-05-24T18:50:18;14.20;91.30
15184;DHT22;7693;49.266;7.104;2023-05-24T18:52:48;14.20;91.60
15184;DHT22;7693;49.266;7.104;2023-05-24T18:55:14;14.10;91.70
15184;DHT22;7693;49.266;7.104;2023-05-24T18:57:39;14.10;91.70
15184;DHT22;7693;49.266;7.104;2023-05-24T19:00:05;14.10;91.90
15184;DHT22;7693;49.266;7.104;2023-05-24T19:02:32;14.10;91.80
15184;DHT22;7693;49.266;7.104;2023-05-24T19:05:06;14.10;91.70
15184;DHT22;7693;49.266;7.104;2023-05-24T19:07:32;14.10;91.70
15184;DHT22;7693;49.266;7.104;2023-05-24T19:09:57;14.00;91.90
15184;DHT22;7693;49.266;7.104;2023-05-24T19:12:23;14.00;91.80
15184;DHT22;7693;49.266;7.104;2023-05-24T19:14:49;14.00;92.00
15184;DHT22;7693;49.266;7.104;2023-05-24T19:17:15;13.90;92.00
15184;DHT22;7693;49.266;7.104;2023-05-24T19:19:41;14.00;92.00
15184;DHT22;7693;49.266;7.104;2023-05-24T19:22:07;14.00;92.00
15184;DHT22;7693;49.266;7.104;2023-05-24T19:24:33;13.90;92.00
15184;DHT22;7693;49.266;7.104;2023-05-24T19:26:59;13.90;92.00
15184;DHT22;7693;49.266;7.104;2023-05-24T19:29:26;13.90;92.20
15184;DHT22;7693;49.266;7.104;2023-05-24T19:31:51;13.90;92.20
15184;DHT22;7693;49.266;7.104;2023-05-24T19:34:18;13.80;92.20
15184;DHT22;7693;49.266;7.104;2023-05-24T19:36:43;13.80;92.30
15184;DHT22;7693;49.266;7.104;2023-05-24T19:39:10;13.80;92.30
15184;DHT22;7693;49.266;7.104;2023-05-24T19:41:36;13.80;92.30
15184;DHT22;7693;49.266;7.104;2023-05-24T19:44:01;13.90;92.40
15184;DHT22;7693;49.266;7.104;2023-05-24T19:46:27;13.80;92.40
15184;DHT22;7693;49.266;7.104;2023-05-24T19:48:53;13.80;92.50
15184;DHT22;7693;49.266;7.104;2023-05-24T19:51:18;13.80;92.50
15184;DHT22;7693;49.266;7.104;2023-05-24T19:53:44;13.80;92.40
15184;DHT22;7693;49.266;7.104;2023-05-24T19:56:10;13.80;92.50
15184;DHT22;7693;49.266;7.104;2023-05-24T19:58:36;13.80;92.60
15184;DHT22;7693;49.266;7.104;2023-05-24T20:01:02;13.80;92.60
15184;DHT22;7693;49.266;7.104;2023-05-24T20:03:28;13.80;92.70
15184;DHT22;7693;49.266;7.104;2023-05-24T20:05:53;13.80;92.60
15184;DHT22;7693;49.266;7.104;2023-05-24T20:08:19;13.80;92.50
15184;DHT22;7693;49.266;7.104;2023-05-24T20:10:46;13.80;92.70
15184;DHT22;7693;49.266;7.104;2023-05-24T20:13:12;13.70;92.60
15184;DHT22;7693;49.266;7.104;2023-05-24T20:15:40;13.80;92.80
15184;DHT22;7693;49.266;7.104;2023-05-24T20:18:06;13.80;92.80
15184;DHT22;7693;49.266;7.104;2023-05-24T20:20:32;13.80;92.90
15184;DHT22;7693;49.266;7.104;2023-05-24T20:22:57;13.80;92.90
15184;DHT22;7693;49.266;7.104;2023-05-24T20:25:23;13.80;92.90
15184;DHT22;7693;49.266;7.104;2023-05-24T20:27:49;13.80;93.00
15184;DHT22;7693;49.266;7.104;2023-05-24T20:30:16;13.80;93.00
15184;DHT22;7693;49.266;7.104;2023-05-24T20:32:42;13.70;92.90
15184;DHT22;7693;49.266;7.104;2023-05-24T20:35:08;13.70;92.90
15184;DHT22;7693;49.266;7.104;2023-05-24T20:37:34;13.70;93.00
15184;DHT22;7693;49.266;7.104;2023-05-24T20:39:59;13.70;93.20
15184;DHT22;7693;49.266;7.104;2023-05-24T20:42:25;13.60;93.00
15184;DHT22;7693;49.266;7.104;2023-05-24T20:44:50;13.60;93.00
15184;DHT22;7693;49.266;7.104;2023-05-24T20:47:16;13.60;92.90
15184;DHT22;7693;49.266;7.104;2023-05-24T20:49:43;13.50;93.00
15184;DHT22;7693;49.266;7.104;2023-05-24T20:52:09;13.50;93.10
15184;DHT22;7693;49.266;7.104;2023-05-24T20:54:35;13.50;93.00
15184;DHT22;7693;49.266;7.104;2023-05-24T20:57:01;13.50;93.20
15184;DHT22;7693;49.266;7.104;2023-05-24T20:59:27;13.50;93.10
15184;DHT22;7693;49.266;7.104;2023-05-24T21:01:53;13.40;93.10
15184;DHT22;7693;49.266;7.104;2023-05-24T21:04:19;13.40;93.10
15184;DHT22;7693;49.266;7.104;2023-05-24T21:06:44;13.40;93.20
15184;DHT22;7693;49.266;7.104;2023-05-24T21:09:10;13.40;93.30
15184;DHT22;7693;49.266;7.104;2023-05-24T21:11:35;13.30;93.30
15184;DHT22;7693;49.266;7.104;2023-05-24T21:14:01;13.30;93.30
15184;DHT22;7693;49.266;7.104;2023-05-24T21:16:27;13.30;93.40
15184;DHT22;7693;49.266;7.104;2023-05-24T21:18:52;13.30;93.30
15184;DHT22;7693;49.266;7.104;2023-05-24T21:21:18;13.20;93.30
15184;DHT22;7693;49.266;7.104;2023-05-24T21:23:44;13.20;93.30
15184;DHT22;7693;49.266;7.104;2023-05-24T21:26:10;13.20;93.50
15184;DHT22;7693;49.266;7.104;2023-05-24T21:28:36;13.20;93.60
15184;DHT22;7693;49.266;7.104;2023-05-24T21:31:01;13.20;93.60
15184;DHT22;7693;49.266;7.104;2023-05-24T21:33:27;13.20;93.60
15184;DHT22;7693;49.266;7.104;2023-05-24T21:35:52;13.10;93.60
15184;DHT22;7693;49.266;7.104;2023-05-24T21:38:18;13.10;93.60
15184;DHT22;7693;49.266;7.104;2023-05-24T21:40:44;13.10;93.70
15184;DHT22;7693;49.266;7.104;2023-05-24T21:43:09;13.10;93.70
15184;DHT22;7693;49.266;7.104;2023-05-24T21:45:40;13.10;93.60
15184;DHT22;7693;49.266;7.104;2023-05-24T21:48:06;13.10;93.80
15184;DHT22;7693;49.266;7.104;2023-05-24T21:50:32;13.00;93.80
15184;DHT22;7693;49.266;7.104;2023-05-24T21:52:58;13.10;93.90
15184;DHT22;7693;49.266;7.104;2023-05-24T21:55:24;13.10;93.90
15184;DHT22;7693;49.266;7.104;2023-05-24T21:57:50;13.10;93.90
15184;DHT22;7693;49.266;7.104;2023-05-24T22:00:18;13.00;93.90
15184;DHT22;7693;49.266;7.104;2023-05-24T22:02:47;13.10;94.10
